Flight Track Log - Related Links

Times and Time Zones

All times are in EDT time to prevent confusion due to time zone crossing. See the ASQ6073 flight status page for this flight to view local times or setup timezone preferences in your user account.

Time Position Orientation Groundspeed Altitude Reporting Facility
EDT Latitude Longitude Course Direction KTS MPH feet Rate Location/Type
Sat 02:23:37 PM 29.9572 -95.3392 95° East 174 200 800  Level Houston Center
Sat 02:25:03 PM 29.9061 -95.2636 128° Southeast 249 287 3,000 1,306 Climbing Houston Center
Sat 02:26:00 PM 29.9264 -94.9537 97° East  Level FlightAware Approximate
Sat 02:26:04 PM 29.8903 -95.1836 103° East 277 319 4,000  Level Houston Center
Sat 02:27:00 PM 29.9133 -94.8262 95° East  Level FlightAware Approximate
Sat 02:27:14 PM 29.8875 -95.0961 92° East 264 304 5,600  Level Houston Center
Sat 02:28:00 PM 29.9027 -94.6983 95° East  Level FlightAware Approximate
Sat 02:28:16 PM 29.8844 -95.0117 92° East 264 304 7,900  Level Houston Center
Sat 02:29:17 PM 29.8825 -94.9242 91° East 270 311 9,900 1,756 Climbing Houston Center
Sat 02:30:19 PM 29.8789 -94.8150 92° East 283 326 11,500 1,306 Climbing Houston Center
Sat 02:31:21 PM 29.8764 -94.7133 92° East 311 358 12,600 1,016 Climbing Houston Center
Sat 02:32:23 PM 29.8722 -94.6053 93° East 330 380 13,600 1,016 Climbing Houston Center
Sat 02:33:25 PM 29.8683 -94.4928 92° East 344 396 14,700 1,016 Climbing Houston Center
Sat 02:34:27 PM 29.8642 -94.3778 92° East 354 407 15,700 968 Climbing Houston Center
Sat 02:35:29 PM 29.8603 -94.2614 92° East 361 415 16,700 1,065 Climbing Houston Center
Sat 02:36:31 PM 29.8564 -94.1200 92° East 372 428 17,900 1,065 Climbing Houston Center
Sat 02:37:33 PM 29.8578 -94.0003 89° East 375 432 18,900 871 Climbing Houston Center
Sat 02:38:35 PM 29.8708 -93.8778 83° East 385 443 19,700 774 Climbing Houston Center
Sat 02:39:37 PM 29.8842 -93.7511 83° East 397 457 20,500 823 Climbing Houston Center
Sat 02:40:39 PM 29.8983 -93.6231 83° East 403 464 21,400 919 Climbing Houston Center
Sat 02:41:41 PM 29.9131 -93.4661 84° East 414 476 22,400 878 Climbing Houston Center
Sat 02:42:42 PM 29.9267 -93.3364 83° East 413 475 23,200 780 Climbing Houston Center
Sat 02:43:44 PM 29.9394 -93.2039 84° East 418 481 24,000 823 Climbing Houston Center
Sat 02:44:46 PM 29.9533 -93.0722 83° East 417 480 24,900 823 Climbing Houston Center
Sat 02:45:48 PM 29.9658 -92.9392 84° East 419 482 25,700 774 Climbing Houston Center
Sat 02:46:50 PM 29.9789 -92.8069 83° East 418 481 26,500 919 Climbing Houston Center
Sat 02:47:52 PM 29.9928 -92.6469 84° East 420 483 27,600 968 Climbing Houston Center
Sat 02:48:54 PM 30.0031 -92.5161 85° East 415 478 28,500 871 Climbing Houston Center
Sat 02:49:56 PM 30.0131 -92.3861 85° East 409 471 29,400 919 Climbing Houston Center
Sat 02:50:58 PM 30.0236 -92.2550 85° East 411 473 30,400 927 Climbing Houston Center
Sat 02:51:59 PM 30.0325 -92.1264 85° East 406 467 31,300 878 Climbing Houston Center
Sat 02:53:01 PM 30.0411 -91.9953 86° East 409 471 32,200 968 Climbing Houston Center
Sat 02:54:03 PM 30.0536 -91.8378 85° East 411 473 33,300 1,016 Climbing Houston Center
Sat 02:55:05 PM 30.0636 -91.7033 85° East 415 478 34,300 823 Climbing Houston Center
Sat 02:56:07 PM 30.0736 -91.5697 85° East 420 483 35,000 339 Climbing Houston Center
Sat 02:57:09 PM 30.0842 -91.4306 85° East 435 501 35,000  Level Houston Center
Sat 02:58:11 PM 30.0950 -91.2850 85° East 457 526 35,000  Level Houston Center
Sat 02:59:13 PM 30.1036 -91.1392 86° East 456 525 35,000  Level Houston Center
Sat 03:00:14 PM 30.1158 -90.9644 85° East 457 526 35,000  Level Houston Center
Sat 03:01:16 PM 30.1483 -90.8242 75° East 455 524 35,000  Level Houston Center
Sat 03:02:18 PM 30.1819 -90.6867 74° East 449 517 35,000  Level Houston Center
Sat 03:03:20 PM 30.2153 -90.5489 74° East 446 513 35,000  Level Houston Center
Sat 03:04:22 PM 30.2494 -90.4114 74° East 446 513 35,000  Level Houston Center
Sat 03:05:24 PM 30.2822 -90.2739 75° East 446 513 35,000  Level Houston Center
Sat 03:06:26 PM 30.3147 -90.1361 75° East 444 511 35,000 -49 Level Houston Center
Sat 03:07:27 PM 30.3544 -89.9708 74° East 443 510 34,900  Descending Houston Center
Sat 03:08:29 PM 30.3856 -89.8375 75° East 447 514 35,000 48 Climbing Houston Center
Sat 03:09:31 PM 30.4192 -89.7000 74° East 447 514 35,000  Level Houston Center
Sat 03:10:33 PM 30.4561 -89.5419 75° East 450 518 35,000  Level Houston Center
Sat 03:11:35 PM 30.4872 -89.4056 75° East 443 510 35,000  Level Houston Center
Sat 03:12:36 PM 30.5186 -89.2672 75° East 444 511 35,000  Level Houston Center
Sat 03:13:38 PM 30.5503 -89.1292 75° East 444 511 35,000  Level Houston Center
Sat 03:14:40 PM 30.5808 -88.9906 76° East 445 512 35,000  Level Houston Center
Sat 03:15:42 PM 30.6142 -88.8439 75° East 444 511 35,000  Level Houston Center
Sat 03:16:43 PM 30.6453 -88.7061 75° East 444 511 35,000  Level Houston Center
Sat 03:17:45 PM 30.6767 -88.5686 75° East 444 511 35,000  Level Houston Center
Sat 03:18:47 PM 30.7125 -88.4097 75° East 444 511 35,000  Level Houston Center
Sat 03:19:49 PM 30.7747 -88.2889 59° Northeast 438 504 35,000  Level Houston Center
Sat 03:20:50 PM 30.8544 -88.1822 49° Northeast 439 505 35,000  Level Houston Center
Sat 03:21:52 PM 30.9372 -88.0747 48° Northeast 445 512 35,000  Level Houston Center
Sat 03:22:54 PM 31.0181 -87.9675 49° Northeast 443 510 35,000  Level Houston Center
Sat 03:23:55 PM 31.0983 -87.8608 49° Northeast 439 505 35,000  Level Houston Center
Sat 03:24:57 PM 31.1944 -87.7322 49° Northeast 439 505 35,000  Level Houston Center
Sat 03:25:59 PM 31.2714 -87.6269 49° Northeast 439 505 35,000  Level Houston Center
Sat 03:27:01 PM 31.3514 -87.5214 48° Northeast 438 504 35,000  Level Houston Center
Sat 03:28:02 PM 31.4292 -87.4133 50° Northeast 436 502 35,000  Level Houston Center
Sat 03:29:04 PM 31.5078 -87.3053 50° Northeast 437 503 35,000  Level Houston Center
Sat 03:30:05 PM 31.5867 -87.1978 49° Northeast 437 503 35,000  Level Houston Center
Sat 03:30:56 PM 31.6714 -87.0914 47° Northeast 426 490 35,000  Level Atlanta Center
Sat 03:31:56 PM 31.7364 -86.9936 52° Northeast 421 484 35,000  Level Atlanta Center
Sat 03:32:56 PM 31.8139 -86.8861 50° Northeast 421 484 35,000  Level Atlanta Center
Sat 03:33:56 PM 31.8936 -86.7786 49° Northeast 421 484 35,000  Level Atlanta Center
Sat 03:34:56 PM 31.9858 -86.6614 47° Northeast 432 497 35,000  Level Atlanta Center
Sat 03:35:56 PM 32.0611 -86.5558 50° Northeast 432 497 35,000  Level Atlanta Center
Sat 03:37:00 PM 32.1328 -86.4458 52° Northeast  Level FlightAware Approximate
Sat 03:37:56 PM 32.2072 -86.3511 52° Northeast 419 482 35,000  Level Atlanta Center
Sat 03:38:56 PM 32.2803 -86.2328 54° Northeast 419 482 35,000  Level Atlanta Center
Sat 03:39:56 PM 32.3553 -86.1189 52° Northeast 434 499 35,000  Level Atlanta Center
Sat 03:40:56 PM 32.4322 -86.0100 50° Northeast 434 499 35,000  Level Atlanta Center
Sat 03:41:56 PM 32.5197 -85.8789 52° Northeast 434 499 35,000  Level Atlanta Center
Sat 03:42:56 PM 32.5967 -85.7672 51° Northeast 455 524 35,000  Level Atlanta Center
Sat 03:43:56 PM 32.6692 -85.6550 52° Northeast 444 511 35,000  Level Atlanta Center
Sat 03:44:56 PM 32.7456 -85.5406 52° Northeast 438 504 35,000  Level Atlanta Center
Sat 03:45:56 PM 32.8222 -85.4281 51° Northeast 438 504 35,000  Level Atlanta Center
Sat 03:46:56 PM 32.8964 -85.3106 53° Northeast 438 504 35,000  Level Atlanta Center
Sat 03:47:56 PM 32.9728 -85.1978 51° Northeast 438 504 35,000  Level Atlanta Center
Sat 03:48:56 PM 33.0403 -85.0994 51° Northeast 430 495 35,000  Level Atlanta Center
Sat 03:49:56 PM 33.1164 -84.9814 52° Northeast 436 502 35,000 -500 Level Atlanta Center
Sat 03:50:56 PM 33.1925 -84.8681 51° Northeast 436 502 34,000 -500 Descending Atlanta Center
Sat 03:51:56 PM 33.2661 -84.7519 53° Northeast 442 509 34,000  Level Atlanta Center
Sat 03:52:56 PM 33.3397 -84.6381 52° Northeast 437 503 34,000 -400 Level Atlanta Center
Sat 03:53:56 PM 33.4156 -84.5217 52° Northeast 437 503 33,200 -1,150 Descending Atlanta Center
Sat 03:54:56 PM 33.4889 -84.4050 53° Northeast 437 503 31,700 -1,500 Descending Atlanta Center
Sat 03:55:56 PM 33.5664 -84.2856 52° Northeast 443 510 30,200 -1,350 Descending Atlanta Center
Sat 03:56:56 PM 33.6419 -84.1611 54° Northeast 448 516 29,000 -600 Descending Atlanta Center
Sat 03:57:56 PM 33.7233 -84.0389 51° Northeast 458 527 29,000  Level Atlanta Center
Sat 03:58:56 PM 33.8025 -83.9139 53° Northeast 463 533 29,000 -650 Level Atlanta Center
Sat 03:59:56 PM 33.8794 -83.7911 53° Northeast 458 527 27,700 -1,400 Descending Atlanta Center
Sat 04:00:56 PM 33.9647 -83.6581 52° Northeast 458 527 26,200 -1,500 Descending Atlanta Center
Sat 04:01:56 PM 34.0458 -83.5300 53° Northeast 467 537 24,700 -1,500 Descending Atlanta Center
Sat 04:02:56 PM 34.1244 -83.4039 53° Northeast 472 543 23,200 -1,550 Descending Atlanta Center
Sat 04:03:56 PM 34.2011 -83.2803 53° Northeast 465 535 21,600 -1,700 Descending Atlanta Center
Sat 04:04:56 PM 34.2775 -83.1614 52° Northeast 453 521 19,800 -2,050 Descending Atlanta Center
Sat 04:05:56 PM 34.3539 -83.0475 51° Northeast 440 506 17,500 -2,350 Descending Atlanta Center
Sat 04:06:56 PM 34.4217 -82.9433 52° Northeast 421 484 15,100 -2,400 Descending Atlanta Center
Sat 04:07:56 PM 34.4897 -82.8367 52° Northeast 399 459 12,700 -2,050 Descending Atlanta Center
Sat 04:08:56 PM 34.5597 -82.7422 48° Northeast 381 438 11,000 -1,350 Descending Atlanta Center
Sat 04:09:56 PM 34.6150 -82.6556 52° Northeast 360 414 10,000 -500 Descending Atlanta Center
Sat 04:10:56 PM 34.6642 -82.5742 54° Northeast 321 369 10,000 -200 Level Atlanta Center
Sat 04:11:56 PM 34.7219 -82.5225 36° Northeast 289 333 9,600 -1,000 Descending Atlanta Center
Sat 04:12:56 PM 34.7881 -82.4681 34° Northeast 278 320 8,000 -1,650 Descending Atlanta Center
Sat 04:13:56 PM 34.8458 -82.4139 38° Northeast 272 313 6,300 -1,550 Descending Atlanta Center
Sat 04:14:56 PM 34.9036 -82.3697 32° Northeast 254 292 4,900 -1,150 Descending Atlanta Center
Sat 04:15:56 PM 34.9572 -82.3256 34° Northeast 249 287 4,000 -900 Descending Atlanta Center
Sat 04:16:56 PM 34.9878 -82.2717 55° Northeast 228 262 3,100 -900 Descending Atlanta Center

Login

Don't have an account? Register now (free) for customized features, flight alerts, and more!